createdAt,value
2023-10-02T00:00:39.283Z,100039.76
2023-10-02T00:01:43.459Z,100030.72
2023-10-02T00:02:48.092Z,100041.37
2023-10-02T00:03:53.516Z,100037.70
2023-10-02T00:04:56.544Z,100028.69
2023-10-02T00:05:59.454Z,100038.03
2023-10-02T00:07:09.147Z,100032.47
2023-10-02T00:08:14.892Z,100034.61
2023-10-02T00:09:19.498Z,100038.06
2023-10-02T00:10:24.548Z,100037.10
2023-10-02T00:11:36.442Z,100036.87
2023-10-02T00:12:39.194Z,100028.17
2023-10-02T00:13:42.051Z,100039.78
2023-10-02T00:14:44.943Z,100034.42
2023-10-02T00:15:49.564Z,100036.11
2023-10-02T00:17:01.004Z,100038.06
2023-10-02T00:18:05.759Z,100040.09
2023-10-02T00:19:22.693Z,100036.20
2023-10-02T00:20:27.343Z,100030.84
2023-10-02T00:21:32.294Z,100036.13
2023-10-02T00:24:03.172Z,100026.56
2023-10-02T00:25:09.020Z,100032.88
2023-10-02T00:26:13.907Z,100038.13
2023-10-02T00:27:17.668Z,100036.32
2023-10-02T00:28:22.289Z,100040.73
2023-10-02T00:30:41.183Z,100043.93
2023-10-02T00:31:46.005Z,100045.34
2023-10-02T00:32:51.042Z,100048.78
2023-10-02T00:33:55.173Z,100041.70
2023-10-02T00:35:01.779Z,100050.52
2023-10-02T00:36:06.014Z,100047.61
2023-10-02T00:37:16.055Z,100041.05
2023-10-02T00:38:19.258Z,100048.03
2023-10-02T00:39:29.633Z,100049.95
2023-10-02T00:40:33.403Z,100048.11
2023-10-02T00:41:36.396Z,100043.63
2023-10-02T00:42:39.256Z,100048.22
2023-10-02T00:43:43.918Z,100044.47
2023-10-02T00:46:10.526Z,100041.03
2023-10-02T00:47:13.564Z,100049.22
2023-10-02T00:48:26.546Z,100042.23
2023-10-02T00:49:32.097Z,100040.97
2023-10-02T00:50:37.300Z,100050.91
2023-10-02T00:51:40.538Z,100048.23
2023-10-02T00:54:01.424Z,100045.55
2023-10-02T00:55:08.487Z,100040.70
2023-10-02T00:56:23.450Z,100044.45
2023-10-02T00:57:28.575Z,100043.05
2023-10-02T00:58:31.760Z,100053.16
2023-10-02T00:59:35.140Z,100046.06
2023-10-02T01:00:41.419Z,100046.06
2023-10-02T01:01:44.544Z,100043.72
2023-10-02T01:02:49.308Z,100050.14
2023-10-02T01:04:12.716Z,100052.38
2023-10-02T01:05:17.557Z,100045.18
2023-10-02T01:06:23.723Z,100044.89
2023-10-02T01:07:29.007Z,100054.62
2023-10-02T01:08:44.574Z,100050.03
2023-10-02T01:09:49.571Z,100046.39
2023-10-02T01:11:00.300Z,100048.75
2023-10-02T01:13:20.031Z,100051.76
2023-10-02T01:14:43.437Z,100052.38
2023-10-02T01:16:51.982Z,100049.19
2023-10-02T01:19:12.293Z,100061.41
2023-10-02T01:20:22.279Z,100058.07
2023-10-02T01:21:25.270Z,100055.39
2023-10-02T01:22:31.095Z,100057.63
2023-10-02T01:23:36.221Z,100058.30
2023-10-02T01:24:39.375Z,100059.91
2023-10-02T01:25:45.616Z,100058.84
2023-10-02T01:26:50.443Z,100055.94
2023-10-02T01:27:55.098Z,100049.41
2023-10-02T01:29:00.570Z,100064.61
2023-10-02T01:31:32.315Z,100061.65
2023-10-02T01:32:36.902Z,100058.61
2023-10-02T01:33:39.765Z,100052.22
2023-10-02T01:34:42.661Z,100058.42
2023-10-02T01:35:50.790Z,100056.05
2023-10-02T01:36:54.078Z,100068.91
2023-10-02T01:37:57.090Z,100062.80
2023-10-02T01:39:03.552Z,100068.05
2023-10-02T01:40:26.622Z,100068.91
2023-10-02T01:41:30.576Z,100069.12
2023-10-02T01:42:33.531Z,100069.89
2023-10-02T01:43:39.938Z,100069.97
2023-10-02T01:44:44.540Z,100076.43
2023-10-02T01:45:51.059Z,100068.58
2023-10-02T01:46:54.078Z,100074.81
2023-10-02T01:47:57.682Z,100072.35
2023-10-02T01:49:02.780Z,100087.66
2023-10-02T01:50:08.062Z,100072.54
2023-10-02T01:51:23.927Z,100067.17
2023-10-02T01:52:32.168Z,100067.95
2023-10-02T01:53:32.870Z,100071.26
2023-10-02T01:54:36.177Z,100066.99
2023-10-02T01:55:40.549Z,100069.97
2023-10-02T01:56:48.090Z,100067.29
2023-10-02T01:57:51.002Z,100065.78
2023-10-02T01:58:55.408Z,100073.48
2023-10-02T02:00:00.153Z,100071.98
2023-10-02T02:01:04.342Z,100067.39
2023-10-02T02:02:09.170Z,100070.80
2023-10-02T02:03:17.142Z,100061.92
2023-10-02T02:04:24.357Z,100069.85
2023-10-02T02:05:29.285Z,100068.79
2023-10-02T02:06:33.956Z,100068.90
2023-10-02T02:07:37.213Z,100072.97
2023-10-02T02:09:59.628Z,100070.19
2023-10-02T02:11:17.814Z,100073.48
2023-10-02T02:12:23.304Z,100073.38
2023-10-02T02:13:26.148Z,100075.21
2023-10-02T02:14:29.566Z,100069.52
2023-10-02T02:15:33.152Z,100070.16
2023-10-02T02:16:36.354Z,100080.11
2023-10-02T02:17:39.234Z,100066.60
2023-10-02T02:18:43.314Z,100073.47
2023-10-02T02:19:50.758Z,100077.66
2023-10-02T02:21:02.710Z,100076.26
2023-10-02T02:22:07.231Z,100083.45
2023-10-02T02:24:24.727Z,100079.51
2023-10-02T02:25:28.868Z,100075.75
2023-10-02T02:28:07.345Z,100071.02
2023-10-02T02:30:34.906Z,100076.59
2023-10-02T02:31:39.727Z,100071.33
2023-10-02T02:32:47.759Z,100079.55
2023-10-02T02:33:52.483Z,100073.66
2023-10-02T02:34:57.151Z,100082.23
2023-10-02T02:36:05.338Z,100071.39
2023-10-02T02:37:09.951Z,100081.98
2023-10-02T02:38:15.796Z,100074.23
2023-10-02T02:39:21.046Z,100075.75
2023-10-02T02:40:24.922Z,100087.56
2023-10-02T02:41:28.935Z,100078.83
2023-10-02T02:42:33.097Z,100083.17
2023-10-02T02:43:38.918Z,100078.41
2023-10-02T02:44:47.150Z,100088.19
2023-10-02T02:45:52.693Z,100084.46
2023-10-02T02:46:56.531Z,100095.34
2023-10-02T02:48:03.132Z,100092.23
2023-10-02T02:49:08.764Z,100089.53
2023-10-02T02:50:13.927Z,100087.64
2023-10-02T02:51:18.500Z,100090.28
2023-10-02T02:52:27.124Z,100088.45
2023-10-02T02:53:31.921Z,100089.06
2023-10-02T02:54:37.323Z,100089.75
2023-10-02T02:55:40.258Z,100086.88
2023-10-02T02:56:43.485Z,100092.53
2023-10-02T02:57:48.022Z,100085.84
2023-10-02T02:58:53.329Z,100088.34
2023-10-02T03:00:17.206Z,100084.03
2023-10-02T03:01:24.260Z,100078.16
2023-10-02T03:02:27.537Z,100090.12
2023-10-02T03:03:37.870Z,100090.52
2023-10-02T03:04:41.118Z,100087.64
2023-10-02T03:05:43.961Z,100085.20
2023-10-02T03:06:48.595Z,100090.03
2023-10-02T03:07:57.256Z,100089.41
2023-10-02T03:09:00.424Z,100092.41
2023-10-02T03:10:03.791Z,100091.59
2023-10-02T03:12:21.321Z,100083.49
2023-10-02T03:13:25.842Z,100090.19
2023-10-02T03:14:31.429Z,100093.95
2023-10-02T03:15:46.595Z,100096.67
2023-10-02T03:16:51.966Z,100095.79
2023-10-02T03:17:58.065Z,100095.23
2023-10-02T03:19:02.888Z,100095.59
2023-10-02T03:20:08.659Z,100096.86
2023-10-02T03:21:24.213Z,100094.14
2023-10-02T03:22:28.466Z,100097.80
2023-10-02T03:23:31.568Z,100100.52
2023-10-02T03:24:34.558Z,100095.75
2023-10-02T03:25:46.063Z,100094.02
2023-10-02T03:26:50.863Z,100088.42
2023-10-02T03:27:55.885Z,100091.58
2023-10-02T03:29:02.046Z,100090.30
2023-10-02T03:30:07.150Z,100088.25
2023-10-02T03:31:12.424Z,100087.90
2023-10-02T03:32:15.543Z,100097.46
2023-10-02T03:33:19.998Z,100093.87
2023-10-02T03:34:28.640Z,100102.67
2023-10-02T03:35:40.646Z,100091.98
2023-10-02T03:36:43.596Z,100090.03
2023-10-02T03:37:49.613Z,100096.06
2023-10-02T03:38:54.498Z,100094.36
2023-10-02T03:39:59.948Z,100091.81
2023-10-02T03:41:03.578Z,100090.31
2023-10-02T03:42:08.276Z,100093.17
2023-10-02T03:43:14.056Z,100088.11
2023-10-02T03:44:18.053Z,100088.37
2023-10-02T03:45:23.643Z,100080.72
2023-10-02T03:46:29.295Z,100081.95
2023-10-02T03:47:34.209Z,100088.51
2023-10-02T03:48:37.329Z,100087.12
2023-10-02T03:50:57.602Z,100082.86
2023-10-02T03:53:13.521Z,100078.54
2023-10-02T03:54:20.301Z,100084.06
2023-10-02T03:55:25.244Z,100084.48
2023-10-02T03:56:37.250Z,100085.83
2023-10-02T03:57:52.502Z,100091.67
2023-10-02T04:00:19.811Z,100088.33
2023-10-02T04:02:46.007Z,100090.45
2023-10-02T04:04:08.374Z,100090.80
2023-10-02T04:06:28.913Z,100095.61
2023-10-02T04:07:32.186Z,100089.87
2023-10-02T04:08:38.078Z,100093.23
2023-10-02T04:09:42.074Z,100101.05
2023-10-02T04:10:59.973Z,100099.16
2023-10-02T04:12:05.155Z,100101.73
2023-10-02T04:13:09.780Z,100110.41
2023-10-02T04:14:19.334Z,100106.78
2023-10-02T04:16:35.031Z,100107.95
2023-10-02T04:17:38.249Z,100107.56
2023-10-02T04:18:50.215Z,100108.73
2023-10-02T04:19:56.007Z,100108.73
2023-10-02T04:22:18.670Z,100113.88
2023-10-02T04:23:24.106Z,100108.26
2023-10-02T04:24:27.265Z,100112.66
2023-10-02T04:25:32.285Z,100110.83
2023-10-02T04:26:35.318Z,100117.03
2023-10-02T04:27:44.711Z,100121.23
2023-10-02T04:28:59.168Z,100113.03
2023-10-02T04:30:11.844Z,100117.30
2023-10-02T04:31:16.819Z,100118.19
2023-10-02T04:32:23.112Z,100119.03
2023-10-02T04:33:26.211Z,100124.38
2023-10-02T04:34:34.468Z,100107.48
2023-10-02T04:35:46.572Z,100126.11
2023-10-02T04:36:49.860Z,100124.86
2023-10-02T04:37:56.070Z,100116.33
2023-10-02T04:38:59.377Z,100115.17
2023-10-02T04:40:16.699Z,100122.15
2023-10-02T04:41:22.972Z,100119.30
2023-10-02T04:42:26.312Z,100127.87
2023-10-02T04:43:30.298Z,100125.87
2023-10-02T04:44:35.123Z,100130.27
2023-10-02T04:45:39.464Z,100124.71
2023-10-02T04:46:45.703Z,100126.23
2023-10-02T04:47:48.785Z,100121.34
2023-10-02T04:48:53.452Z,100127.34
2023-10-02T04:50:07.281Z,100131.64
2023-10-02T04:51:12.636Z,100125.33
2023-10-02T04:52:15.726Z,100130.58
2023-10-02T04:53:23.091Z,100131.36
2023-10-02T04:54:26.887Z,100137.59
2023-10-02T04:55:35.680Z,100137.59
2023-10-02T04:56:40.530Z,100133.92
2023-10-02T04:57:45.005Z,100145.42
2023-10-02T04:58:51.710Z,100142.84
2023-10-02T04:59:55.693Z,100137.48
2023-10-02T05:01:05.253Z,100136.53
2023-10-02T05:04:38.610Z,100142.78
2023-10-02T05:05:46.896Z,100144.36
2023-10-02T05:06:56.272Z,100145.10
2023-10-02T05:08:01.197Z,100145.87
2023-10-02T05:09:07.909Z,100154.66
2023-10-02T05:10:11.660Z,100148.24
2023-10-02T05:11:27.331Z,100148.24
2023-10-02T05:12:32.020Z,100158.11
2023-10-02T05:13:55.393Z,100155.33
2023-10-02T05:15:00.059Z,100159.73
2023-10-02T05:16:13.607Z,100160.48
2023-10-02T05:17:17.861Z,100152.33
2023-10-02T05:18:23.494Z,100162.94
2023-10-02T05:19:44.896Z,100160.27
2023-10-02T05:20:48.468Z,100165.63
2023-10-02T05:21:51.835Z,100161.25
2023-10-02T05:22:57.029Z,100161.32
2023-10-02T05:24:03.360Z,100173.02
2023-10-02T05:25:07.681Z,100164.11
2023-10-02T05:26:12.670Z,100165.94
2023-10-02T05:27:18.326Z,100172.14
2023-10-02T05:28:21.428Z,100161.53
2023-10-02T05:29:41.571Z,100161.32
2023-10-02T05:30:45.503Z,100162.94
2023-10-02T05:31:51.336Z,100171.86
2023-10-02T05:32:57.157Z,100163.83
2023-10-02T05:34:01.628Z,100172.81
2023-10-02T05:35:14.036Z,100171.19
2023-10-02T05:36:19.635Z,100171.19
2023-10-02T05:37:23.803Z,100173.98
2023-10-02T05:38:28.425Z,100173.98
2023-10-02T05:39:40.623Z,100163.16
2023-10-02T05:40:47.106Z,100169.36
2023-10-02T05:41:52.395Z,100166.50
2023-10-02T05:43:01.613Z,100173.77
2023-10-02T05:44:08.977Z,100175.49
2023-10-02T05:45:14.393Z,100179.90
2023-10-02T05:46:17.644Z,100176.34
2023-10-02T05:47:22.278Z,100177.22
2023-10-02T05:48:25.374Z,100182.58
2023-10-02T05:49:30.004Z,100181.80
2023-10-02T05:50:33.944Z,100178.38
2023-10-02T05:51:38.802Z,100179.23
2023-10-02T05:52:43.796Z,100187.16
2023-10-02T05:53:48.632Z,100185.64
2023-10-02T05:54:54.959Z,100184.90
2023-10-02T05:55:57.957Z,100184.90
2023-10-02T05:57:10.196Z,100188.32
2023-10-02T05:58:16.162Z,100189.95
2023-10-02T05:59:21.009Z,100191.56
2023-10-02T06:00:24.904Z,100188.11
2023-10-02T06:02:47.063Z,100186.78
2023-10-02T06:03:53.967Z,100184.23
2023-10-02T06:04:58.689Z,100189.90
2023-10-02T06:07:44.108Z,100191.95
2023-10-02T06:10:27.593Z,100193.58
2023-10-02T06:11:34.211Z,100193.32
2023-10-02T06:12:39.473Z,100188.73
2023-10-02T06:13:46.089Z,100194.94
2023-10-02T06:14:49.967Z,100196.67
2023-10-02T06:15:55.637Z,100193.11
2023-10-02T06:16:59.167Z,100198.47
2023-10-02T06:18:03.279Z,100196.67
2023-10-02T06:20:45.239Z,100196.51
2023-10-02T06:21:50.223Z,100196.25
2023-10-02T06:22:56.342Z,100192.63
2023-10-02T06:24:03.636Z,100197.03
2023-10-02T06:25:09.352Z,100203.13
2023-10-02T06:26:13.867Z,100197.67
2023-10-02T06:27:18.095Z,100196.61
2023-10-02T06:28:23.479Z,100197.56
2023-10-02T06:29:30.273Z,100202.75
2023-10-02T06:30:33.896Z,100200.91
2023-10-02T06:31:38.598Z,100196.61
2023-10-02T06:32:43.606Z,100200.07
2023-10-02T06:33:49.129Z,100199.19
2023-10-02T06:34:52.826Z,100199.50
2023-10-02T06:36:01.624Z,100209.38
2023-10-02T06:38:21.687Z,100204.38
2023-10-02T06:39:26.254Z,100213.11
2023-10-02T06:40:30.153Z,100213.95
2023-10-02T06:41:36.015Z,100206.80
2023-10-02T06:42:44.172Z,100216.42
2023-10-02T06:43:48.213Z,100225.23
2023-10-02T06:44:55.460Z,100211.73
2023-10-02T06:47:24.454Z,100216.40
2023-10-02T06:48:27.535Z,100213.47
2023-10-02T06:49:32.952Z,100213.47
2023-10-02T06:50:36.994Z,100213.36
2023-10-02T06:51:42.602Z,100211.53
2023-10-02T06:52:45.664Z,100211.73
2023-10-02T06:53:48.873Z,100209.38
2023-10-02T06:54:53.631Z,100218.47
2023-10-02T06:56:00.348Z,100231.08
2023-10-02T06:57:06.171Z,100223.15
2023-10-02T06:58:10.995Z,100232.14
2023-10-02T06:59:14.523Z,100233.22
2023-10-02T07:00:20.691Z,100230.72
2023-10-02T07:01:30.743Z,100227.30
2023-10-02T07:02:33.980Z,100233.70
2023-10-02T07:03:41.257Z,100219.91
2023-10-02T07:04:47.962Z,100219.91
2023-10-02T07:05:51.080Z,100240.11
2023-10-02T07:06:54.035Z,100240.22
2023-10-02T07:08:01.891Z,100237.64
2023-10-02T07:09:13.119Z,100237.70
2023-10-02T07:10:18.707Z,100236.93
2023-10-02T07:11:23.360Z,100236.19
2023-10-02T07:12:28.247Z,100231.88
2023-10-02T07:13:32.740Z,100233.81
2023-10-02T07:14:37.935Z,100235.61
2023-10-02T07:15:43.408Z,100229.30
2023-10-02T07:16:48.196Z,100232.83
2023-10-02T07:17:54.052Z,100235.41
2023-10-02T07:18:58.781Z,100232.55
2023-10-02T07:20:01.738Z,100229.67
2023-10-02T07:21:09.213Z,100240.22
2023-10-02T07:22:14.062Z,100218.69
2023-10-02T07:23:19.401Z,100230.17
2023-10-02T07:24:29.317Z,100229.19
2023-10-02T07:25:35.881Z,100226.52
2023-10-02T07:26:52.077Z,100228.24
2023-10-02T07:27:57.848Z,100224.52
2023-10-02T07:29:02.151Z,100234.17
2023-10-02T07:30:08.041Z,100232.34
2023-10-02T07:31:13.234Z,100234.92
2023-10-02T07:32:17.497Z,100233.97
2023-10-02T07:33:22.673Z,100229.45
2023-10-02T07:34:27.448Z,100242.00
2023-10-02T07:35:35.034Z,100241.05
2023-10-02T07:36:43.292Z,100245.46
2023-10-02T07:37:48.153Z,100241.05
2023-10-02T07:38:51.916Z,100245.63
2023-10-02T07:39:58.847Z,100238.48
2023-10-02T07:41:03.979Z,100258.18
2023-10-02T07:42:10.853Z,100253.67
2023-10-02T07:43:18.909Z,100253.56
2023-10-02T07:44:22.718Z,100249.09
2023-10-02T07:45:28.754Z,100245.46
2023-10-02T07:46:33.203Z,100248.14
2023-10-02T07:47:39.219Z,100252.52
2023-10-02T07:48:42.369Z,100253.39
2023-10-02T07:51:02.991Z,100242.84
2023-10-02T07:52:08.174Z,100246.20
2023-10-02T07:53:12.462Z,100261.44
2023-10-02T07:54:16.494Z,100262.18
2023-10-02T07:55:22.239Z,100263.91
2023-10-02T07:56:26.146Z,100270.11
2023-10-02T07:57:33.792Z,100268.48
2023-10-02T07:58:36.991Z,100266.69
2023-10-02T07:59:44.418Z,100265.73
2023-10-02T08:00:51.847Z,100265.63
2023-10-02T08:01:58.170Z,100270.78
2023-10-02T08:03:03.234Z,100276.05
2023-10-02T08:04:06.750Z,100266.17
2023-10-02T08:05:10.439Z,100271.53
2023-10-02T08:06:33.131Z,100272.52
2023-10-02T08:07:44.494Z,100269.73
2023-10-02T08:08:45.506Z,100271.36
2023-10-02T08:09:49.592Z,100278.31
2023-10-02T08:10:54.010Z,100284.45
2023-10-02T08:11:57.890Z,100280.81
2023-10-02T08:14:33.276Z,100296.00
2023-10-02T08:15:37.279Z,100283.19
2023-10-02T08:16:42.166Z,100278.14
2023-10-02T08:18:58.515Z,100284.92
2023-10-02T08:20:03.077Z,100279.30
2023-10-02T08:21:06.764Z,100279.30
2023-10-02T08:22:10.256Z,100282.72
2023-10-02T08:23:26.054Z,100285.20
2023-10-02T08:24:29.279Z,100276.20
2023-10-02T08:25:34.377Z,100280.51
2023-10-02T08:26:40.926Z,100284.92
2023-10-02T08:27:58.337Z,100283.94
2023-10-02T08:29:02.719Z,100279.34
2023-10-02T08:30:10.744Z,100287.39
2023-10-02T08:31:14.391Z,100266.90
2023-10-02T08:32:19.126Z,100276.98
2023-10-02T08:33:39.676Z,100273.63
2023-10-02T08:34:27.681Z,100280.04
2023-10-02T08:35:30.991Z,100273.94
2023-10-02T08:36:34.925Z,100277.46
2023-10-02T08:37:39.844Z,100282.83
2023-10-02T08:38:44.713Z,100274.68
2023-10-02T08:39:48.998Z,100288.86
2023-10-02T08:40:59.278Z,100293.12
2023-10-02T08:42:11.574Z,100280.61
2023-10-02T08:43:14.829Z,100292.17
2023-10-02T08:44:17.910Z,100289.60
2023-10-02T08:45:21.265Z,100280.81
2023-10-02T08:46:28.437Z,100286.35
2023-10-02T08:47:32.848Z,100276.79
2023-10-02T08:48:35.889Z,100288.02
2023-10-02T08:49:39.479Z,100288.02
2023-10-02T08:50:42.647Z,100292.80
2023-10-02T08:51:52.587Z,100288.50
2023-10-02T08:52:55.999Z,100314.53
2023-10-02T08:54:01.281Z,100288.91
2023-10-02T08:55:38.753Z,100287.27
2023-10-02T08:58:10.725Z,100296.84
2023-10-02T08:59:18.914Z,100294.05
2023-10-02T09:00:24.522Z,100296.83
2023-10-02T09:01:28.622Z,100283.34
2023-10-02T09:02:33.880Z,100317.38
2023-10-02T09:05:08.951Z,100294.90
2023-10-02T09:06:28.863Z,100311.93
2023-10-02T09:07:51.384Z,100298.74
2023-10-02T09:09:17.113Z,100303.31
2023-10-02T09:10:25.420Z,100301.62
2023-10-02T09:11:34.054Z,100310.86
2023-10-02T09:12:38.616Z,100305.60
2023-10-02T09:13:43.675Z,100306.84
2023-10-02T09:14:47.060Z,100312.30
2023-10-02T09:15:53.641Z,100301.69
2023-10-02T09:18:36.047Z,100305.34
2023-10-02T09:19:42.220Z,100294.34
2023-10-02T09:20:53.106Z,100304.06
2023-10-02T09:22:08.198Z,100313.92
2023-10-02T09:23:11.589Z,100322.16
2023-10-02T09:24:24.124Z,100315.91
2023-10-02T09:25:31.598Z,100306.19
2023-10-02T09:26:34.403Z,100309.72
2023-10-02T09:29:03.922Z,100307.33
2023-10-02T09:30:23.128Z,100309.81
2023-10-02T09:31:36.639Z,100302.63
2023-10-02T09:32:48.438Z,100299.11
2023-10-02T09:34:03.020Z,100299.01
2023-10-02T09:35:26.071Z,100294.60
2023-10-02T09:36:27.309Z,100317.84
2023-10-02T09:37:45.686Z,100310.76
2023-10-02T09:38:33.132Z,100306.34
2023-10-02T09:39:40.597Z,100300.15
2023-10-02T09:40:57.012Z,100309.91
2023-10-02T09:42:09.372Z,100303.67
2023-10-02T09:43:13.169Z,100298.32
2023-10-02T09:44:19.016Z,100292.02
2023-10-02T09:45:25.336Z,100292.91
2023-10-02T09:46:30.950Z,100296.53
2023-10-02T09:47:34.998Z,100288.59
2023-10-02T09:48:48.634Z,100296.72
2023-10-02T09:50:13.779Z,100289.64
2023-10-02T09:51:28.161Z,100287.91
2023-10-02T09:52:33.889Z,100294.99
2023-10-02T09:53:39.639Z,100296.62
2023-10-02T09:55:06.798Z,100293.85
2023-10-02T09:56:15.616Z,100288.40
2023-10-02T09:57:23.192Z,100290.98
2023-10-02T09:58:36.214Z,100299.79
2023-10-02T09:59:47.490Z,100299.69
2023-10-02T10:01:17.358Z,100299.69
2023-10-02T10:02:21.179Z,100292.61
2023-10-02T10:03:31.844Z,100300.64
2023-10-02T10:06:20.046Z,100312.78
2023-10-02T10:07:24.779Z,100296.62
2023-10-02T10:10:28.434Z,100300.44
2023-10-02T10:11:34.149Z,100292.97
2023-10-02T10:12:54.655Z,100301.69
2023-10-02T10:14:00.649Z,100307.72
2023-10-02T10:15:26.665Z,100299.69
2023-10-02T10:16:35.175Z,100305.99
2023-10-02T10:17:56.131Z,100297.18
2023-10-02T10:19:10.534Z,100306.19
2023-10-02T10:20:21.187Z,100302.53
2023-10-02T10:21:56.824Z,100304.27
2023-10-02T10:23:00.058Z,100291.83
2023-10-02T10:25:45.305Z,100298.36
2023-10-02T10:26:49.941Z,100301.59
2023-10-02T10:27:56.689Z,100294.44
2023-10-02T10:29:00.662Z,100305.05
2023-10-02T10:30:28.316Z,100297.87
2023-10-02T10:31:33.246Z,100292.52
2023-10-02T10:32:37.169Z,100304.06
2023-10-02T10:33:41.045Z,100288.00
2023-10-02T10:35:16.801Z,100290.78
2023-10-02T10:36:39.452Z,100285.53
2023-10-02T10:37:46.187Z,100301.59
2023-10-02T10:40:15.295Z,100307.72
2023-10-02T10:41:33.918Z,100297.87
2023-10-02T10:44:13.663Z,100307.03
2023-10-02T10:45:16.419Z,100296.33
2023-10-02T10:46:30.467Z,100308.96
2023-10-02T10:47:38.481Z,100301.98
2023-10-02T10:48:42.145Z,100288.50
2023-10-02T10:50:00.484Z,100300.94
2023-10-02T10:52:23.941Z,100291.37
2023-10-02T10:53:29.448Z,100295.48
2023-10-02T10:54:49.983Z,100303.41
2023-10-02T10:55:39.797Z,100303.41
2023-10-02T10:56:48.876Z,100308.86
2023-10-02T10:57:54.434Z,100297.28
2023-10-02T10:59:00.832Z,100303.52
2023-10-02T11:00:27.940Z,100306.09
2023-10-02T11:01:30.824Z,100292.61
2023-10-02T11:02:35.735Z,100291.47
2023-10-02T11:03:40.188Z,100293.09
2023-10-02T11:06:11.229Z,100299.20
2023-10-02T11:07:20.626Z,100299.20
2023-10-02T11:08:27.299Z,100285.81
2023-10-02T11:09:31.160Z,100284.09
2023-10-02T11:10:37.505Z,100289.54
2023-10-02T11:13:06.580Z,100302.84
2023-10-02T11:14:11.223Z,100289.27
2023-10-02T11:15:17.990Z,100294.73
2023-10-02T11:16:37.154Z,100288.39
2023-10-02T11:17:43.173Z,100296.33
2023-10-02T11:19:55.069Z,100285.91
2023-10-02T11:21:01.072Z,100292.79
2023-10-02T11:25:00.255Z,100280.02
2023-10-02T11:26:14.085Z,100287.58
2023-10-02T11:27:17.316Z,100292.83
2023-10-02T11:29:48.536Z,100291.08
2023-10-02T11:32:20.197Z,100287.17
2023-10-02T11:33:31.401Z,100285.07
2023-10-02T11:34:36.439Z,100292.91
2023-10-02T11:35:41.234Z,100287.34
2023-10-02T11:36:47.322Z,100280.83
2023-10-02T11:37:50.982Z,100285.13
2023-10-02T11:38:54.185Z,100292.22
2023-10-02T11:39:57.937Z,100284.19
2023-10-02T11:41:00.961Z,100291.34
2023-10-02T11:42:06.053Z,100284.19
2023-10-02T11:43:10.142Z,100295.86
2023-10-02T11:44:15.765Z,100303.79
2023-10-02T11:45:18.613Z,100289.75
2023-10-02T11:46:22.832Z,100289.75
2023-10-02T11:47:35.850Z,100286.19
2023-10-02T11:48:40.486Z,100283.51
2023-10-02T11:49:43.368Z,100294.02
2023-10-02T11:50:48.706Z,100296.53
2023-10-02T11:51:51.587Z,100284.83
2023-10-02T11:53:01.911Z,100285.70
2023-10-02T11:54:08.347Z,100286.56
2023-10-02T11:55:11.842Z,100297.27
2023-10-02T11:56:15.518Z,100297.17
2023-10-02T11:57:19.901Z,100293.55
2023-10-02T11:58:23.288Z,100298.80
2023-10-02T11:59:26.286Z,100298.80
2023-10-02T12:00:29.810Z,100299.86
2023-10-02T12:01:35.344Z,100299.86
2023-10-02T12:02:39.962Z,100296.53
2023-10-02T12:03:43.526Z,100303.05
2023-10-02T12:04:47.003Z,100305.72
2023-10-02T12:05:51.020Z,100294.13
2023-10-02T12:06:58.369Z,100311.08
2023-10-02T12:08:04.551Z,100298.64
2023-10-02T12:09:07.784Z,100307.52
2023-10-02T12:10:16.315Z,100296.80
2023-10-02T12:11:20.137Z,100296.70
2023-10-02T12:12:25.238Z,100313.56
2023-10-02T12:13:30.319Z,100306.37
2023-10-02T12:14:33.886Z,100308.09
2023-10-02T12:15:37.804Z,100299.20
2023-10-02T12:16:42.354Z,100290.19
2023-10-02T12:17:47.341Z,100301.69
2023-10-02T12:18:51.524Z,100298.05
2023-10-02T12:19:54.795Z,100300.53
2023-10-02T12:20:57.855Z,100310.30
2023-10-02T12:22:08.720Z,100310.30
2023-10-02T12:23:05.708Z,100315.66
2023-10-02T12:25:21.234Z,100301.09
2023-10-02T12:26:29.003Z,100308.95
2023-10-02T12:27:34.745Z,100305.31
2023-10-02T12:28:38.663Z,100311.55
2023-10-02T12:29:44.507Z,100306.94
2023-10-02T12:30:49.310Z,100309.52
2023-10-02T12:31:54.073Z,100312.20
2023-10-02T12:32:57.151Z,100304.27
2023-10-02T12:34:01.420Z,100302.43
2023-10-02T12:35:06.164Z,100307.69
2023-10-02T12:37:33.669Z,100304.11
2023-10-02T12:38:36.835Z,100301.17
2023-10-02T12:39:39.509Z,100301.37
2023-10-02T12:40:43.156Z,100291.61
2023-10-02T12:41:46.268Z,100316.71
2023-10-02T12:42:49.078Z,100305.98
2023-10-02T12:45:07.650Z,100306.90
2023-10-02T12:46:14.094Z,100314.77
2023-10-02T12:47:17.071Z,100305.98
2023-10-02T12:48:20.264Z,100308.67
2023-10-02T12:49:23.152Z,100311.63
2023-10-02T12:50:26.655Z,100311.08
2023-10-02T12:51:31.368Z,100330.89
2023-10-02T12:52:36.548Z,100315.97
2023-10-02T12:53:40.381Z,100339.30
2023-10-02T12:54:45.041Z,100302.30
2023-10-02T12:55:48.792Z,100315.98
2023-10-02T12:56:52.832Z,100324.19
2023-10-02T12:57:56.329Z,100323.41
2023-10-02T12:59:00.490Z,100318.16
2023-10-02T13:00:08.299Z,100324.45
2023-10-02T13:02:27.362Z,100325.72
2023-10-02T13:03:32.848Z,100320.93
2023-10-02T13:04:36.051Z,100322.63
2023-10-02T13:05:38.973Z,100323.41
2023-10-02T13:06:44.570Z,100319.72
2023-10-02T13:07:48.865Z,100328.50
2023-10-02T13:08:52.515Z,100320.37
2023-10-02T13:09:56.880Z,100303.34
2023-10-02T13:10:59.611Z,100332.81
2023-10-02T13:12:02.929Z,100322.09
2023-10-02T13:13:06.278Z,100326.41
2023-10-02T13:14:10.053Z,100327.16
2023-10-02T13:15:14.967Z,100333.30
2023-10-02T13:16:21.329Z,100323.22
2023-10-02T13:17:24.825Z,100328.58
2023-10-02T13:18:29.072Z,100338.25
2023-10-02T13:19:34.726Z,100320.75
2023-10-02T13:20:39.595Z,100320.75
2023-10-02T13:21:43.256Z,100322.17
2023-10-02T13:22:46.195Z,100332.14
2023-10-02T13:23:52.350Z,100320.55
2023-10-02T13:24:56.621Z,100331.36
2023-10-02T13:25:59.488Z,100316.16
2023-10-02T13:27:02.502Z,100337.77
2023-10-02T13:28:06.160Z,100326.10
2023-10-02T13:29:09.270Z,100326.00
2023-10-02T13:30:15.345Z,100326.10
2023-10-02T13:31:20.738Z,100311.96
2023-10-02T13:32:24.726Z,100335.97
2023-10-02T13:33:28.047Z,100329.73
2023-10-02T13:34:32.539Z,100327.05
2023-10-02T13:35:40.489Z,100323.32
2023-10-02T13:36:44.505Z,100327.63
2023-10-02T13:37:48.152Z,100316.81
2023-10-02T13:38:54.796Z,100339.88
2023-10-02T13:39:58.926Z,100331.84
2023-10-02T13:42:23.037Z,100329.23
2023-10-02T13:43:26.032Z,100321.90
2023-10-02T13:44:30.391Z,100317.49
2023-10-02T13:45:34.959Z,100328.20
2023-10-02T13:46:39.337Z,100328.95
2023-10-02T13:47:43.022Z,100324.58
2023-10-02T13:48:46.148Z,100336.25
2023-10-02T13:49:50.008Z,100338.08
2023-10-02T13:51:03.054Z,100327.36